sensor_id;sensor_type;location;lat;lon;timestamp;pressure;altitude;pressure_sealevel;temperature;humidity
61568;BME280;47462;59.172;17.196;2022-10-15T00:01:04;100455.75;;;10.61;82.55
61568;BME280;47462;59.172;17.196;2022-10-15T00:03:29;100444.03;;;10.73;82.61
61568;BME280;47462;59.172;17.196;2022-10-15T00:05:54;100438.81;;;10.73;82.56
61568;BME280;47462;59.172;17.196;2022-10-15T00:08:20;100437.94;;;10.74;82.32
61568;BME280;47462;59.172;17.196;2022-10-15T00:10:45;100441.38;;;10.75;82.13
61568;BME280;47462;59.172;17.196;2022-10-15T00:13:11;100409.69;;;10.60;82.20
61568;BME280;47462;59.172;17.196;2022-10-15T00:15:36;100388.44;;;10.44;82.04
61568;BME280;47462;59.172;17.196;2022-10-15T00:18:02;100433.59;;;10.73;82.09
61568;BME280;47462;59.172;17.196;2022-10-15T00:20:27;100399.59;;;10.49;81.97
61568;BME280;47462;59.172;17.196;2022-10-15T00:22:52;100423.47;;;10.64;82.08
61568;BME280;47462;59.172;17.196;2022-10-15T00:25:18;100403.22;;;10.45;82.26
61568;BME280;47462;59.172;17.196;2022-10-15T00:27:43;100338.34;;;10.08;81.86
61568;BME280;47462;59.172;17.196;2022-10-15T00:30:09;100425.41;;;10.59;82.09
61568;BME280;47462;59.172;17.196;2022-10-15T00:32:35;100364.06;;;10.18;82.11
61568;BME280;47462;59.172;17.196;2022-10-15T00:35:00;100408.47;;;10.44;82.19
61568;BME280;47462;59.172;17.196;2022-10-15T00:37:25;100399.00;;;10.41;82.26
61568;BME280;47462;59.172;17.196;2022-10-15T00:39:51;100417.88;;;10.49;82.21
61568;BME280;47462;59.172;17.196;2022-10-15T00:42:17;100414.50;;;10.46;82.40
61568;BME280;47462;59.172;17.196;2022-10-15T00:44:50;100408.59;;;10.41;82.51
61568;BME280;47462;59.172;17.196;2022-10-15T00:47:45;100414.75;;;10.38;82.27
61568;BME280;47462;59.172;17.196;2022-10-15T00:55:21;100338.25;;;9.82;82.97
61568;BME280;47462;59.172;17.196;2022-10-15T00:57:49;100404.69;;;10.26;82.94
61568;BME280;47462;59.172;17.196;2022-10-15T01:00:15;100408.34;;;10.20;82.93
61568;BME280;47462;59.172;17.196;2022-10-15T01:02:42;100203.19;;;8.55;83.11
61568;BME280;47462;59.172;17.196;2022-10-15T01:05:08;100412.59;;;10.23;83.37
61568;BME280;47462;59.172;17.196;2022-10-15T01:07:33;100397.81;;;10.23;83.42
61568;BME280;47462;59.172;17.196;2022-10-15T01:09:59;100316.00;;;9.72;83.39
61568;BME280;47462;59.172;17.196;2022-10-15T01:12:27;100401.38;;;10.21;83.51
61568;BME280;47462;59.172;17.196;2022-10-15T01:15:14;100404.88;;;10.20;83.45
61568;BME280;47462;59.172;17.196;2022-10-15T01:17:54;100404.91;;;10.18;83.49
61568;BME280;47462;59.172;17.196;2022-10-15T01:29:11;100305.16;;;9.58;83.62
61568;BME280;47462;59.172;17.196;2022-10-15T01:31:46;100344.28;;;9.85;83.70
61568;BME280;47462;59.172;17.196;2022-10-15T01:39:32;100185.66;;;8.92;83.55
61568;BME280;47462;59.172;17.196;2022-10-15T01:42:01;100372.97;;;10.11;83.62
61568;BME280;47462;59.172;17.196;2022-10-15T01:44:31;100367.78;;;10.11;83.58
61568;BME280;47462;59.172;17.196;2022-10-15T01:47:15;100360.84;;;10.10;83.35
61568;BME280;47462;59.172;17.196;2022-10-15T01:49:42;100361.75;;;10.09;83.52
61568;BME280;47462;59.172;17.196;2022-10-15T01:52:22;100357.38;;;10.10;83.49
61568;BME280;47462;59.172;17.196;2022-10-15T01:54:51;100350.41;;;10.10;83.53
61568;BME280;47462;59.172;17.196;2022-10-15T01:57:18;100295.97;;;9.74;83.21
61568;BME280;47462;59.172;17.196;2022-10-15T01:59:45;100320.75;;;9.88;83.19
61568;BME280;47462;59.172;17.196;2022-10-15T02:02:11;100332.41;;;10.03;82.97
61568;BME280;47462;59.172;17.196;2022-10-15T02:04:36;100251.44;;;9.54;82.88
61568;BME280;47462;59.172;17.196;2022-10-15T02:07:06;100287.06;;;9.80;82.87
61568;BME280;47462;59.172;17.196;2022-10-15T02:09:56;100340.72;;;10.15;82.77
61568;BME280;47462;59.172;17.196;2022-10-15T02:21:15;100332.84;;;10.17;83.17
61568;BME280;47462;59.172;17.196;2022-10-15T02:26:35;100301.06;;;10.04;83.01
61568;BME280;47462;59.172;17.196;2022-10-15T02:29:05;100327.47;;;10.22;83.01
61568;BME280;47462;59.172;17.196;2022-10-15T02:31:31;100330.16;;;10.18;82.76
61568;BME280;47462;59.172;17.196;2022-10-15T02:34:04;100331.84;;;10.20;82.62
61568;BME280;47462;59.172;17.196;2022-10-15T02:36:31;100299.44;;;10.02;82.45
61568;BME280;47462;59.172;17.196;2022-10-15T02:38:58;100323.28;;;10.16;82.69
61568;BME280;47462;59.172;17.196;2022-10-15T02:41:27;100320.75;;;10.14;82.65
61568;BME280;47462;59.172;17.196;2022-10-15T02:43:53;100316.38;;;10.15;82.61
61568;BME280;47462;59.172;17.196;2022-10-15T02:46:19;100296.72;;;10.05;82.76
61568;BME280;47462;59.172;17.196;2022-10-15T02:48:45;100302.53;;;10.13;82.88
61568;BME280;47462;59.172;17.196;2022-10-15T02:51:10;100301.69;;;10.12;82.70
61568;BME280;47462;59.172;17.196;2022-10-15T02:53:35;100284.66;;;10.02;82.71
61568;BME280;47462;59.172;17.196;2022-10-15T02:56:01;100119.31;;;9.05;82.48
61568;BME280;47462;59.172;17.196;2022-10-15T02:58:26;100293.97;;;10.09;82.61
61568;BME280;47462;59.172;17.196;2022-10-15T03:00:53;100288.81;;;10.08;82.73
61568;BME280;47462;59.172;17.196;2022-10-15T03:03:19;100287.09;;;10.07;82.75
61568;BME280;47462;59.172;17.196;2022-10-15T03:05:44;100226.41;;;9.76;82.69
61568;BME280;47462;59.172;17.196;2022-10-15T03:08:10;100279.22;;;10.08;82.68
61568;BME280;47462;59.172;17.196;2022-10-15T03:10:35;100273.22;;;10.06;82.72
61568;BME280;47462;59.172;17.196;2022-10-15T03:13:03;100276.72;;;10.05;82.79
61568;BME280;47462;59.172;17.196;2022-10-15T03:15:28;100229.78;;;9.78;82.80
61568;BME280;47462;59.172;17.196;2022-10-15T03:17:54;100261.44;;;9.94;82.79
61568;BME280;47462;59.172;17.196;2022-10-15T03:20:19;100223.63;;;9.81;83.08
61568;BME280;47462;59.172;17.196;2022-10-15T03:22:45;100230.47;;;9.85;83.66
61568;BME280;47462;59.172;17.196;2022-10-15T03:25:10;100243.94;;;9.98;83.31
61568;BME280;47462;59.172;17.196;2022-10-15T03:27:36;100254.34;;;9.44;83.39
61568;BME280;47462;59.172;17.196;2022-10-15T03:30:01;100228.69;;;9.86;83.45
61568;BME280;47462;59.172;17.196;2022-10-15T03:32:27;100232.03;;;9.91;83.37
61568;BME280;47462;59.172;17.196;2022-10-15T03:34:54;100233.03;;;9.87;83.54
61568;BME280;47462;59.172;17.196;2022-10-15T03:37:20;100247.19;;;10.05;83.68
61568;BME280;47462;59.172;17.196;2022-10-15T03:39:45;100266.75;;;10.16;83.51
61568;BME280;47462;59.172;17.196;2022-10-15T03:42:11;100269.28;;;10.20;83.47
61568;BME280;47462;59.172;17.196;2022-10-15T03:44:36;100302.19;;;10.24;83.74
61568;BME280;47462;59.172;17.196;2022-10-15T03:47:02;100244.13;;;10.18;83.83
61568;BME280;47462;59.172;17.196;2022-10-15T03:49:27;100223.91;;;10.00;84.26
61568;BME280;47462;59.172;17.196;2022-10-15T03:51:52;100249.91;;;10.27;84.42
61568;BME280;47462;59.172;17.196;2022-10-15T03:54:18;100002.94;;;8.82;84.54
61568;BME280;47462;59.172;17.196;2022-10-15T03:56:43;100189.66;;;9.84;84.71
61568;BME280;47462;59.172;17.196;2022-10-15T03:59:08;100206.13;;;10.11;84.96
61568;BME280;47462;59.172;17.196;2022-10-15T04:01:34;100231.53;;;10.30;85.07
61568;BME280;47462;59.172;17.196;2022-10-15T04:03:59;100204.91;;;10.22;85.34
61568;BME280;47462;59.172;17.196;2022-10-15T04:06:25;100218.50;;;10.30;85.50
61568;BME280;47462;59.172;17.196;2022-10-15T04:08:50;100217.59;;;10.31;85.99
61568;BME280;47462;59.172;17.196;2022-10-15T04:11:15;100213.28;;;10.30;86.18
61568;BME280;47462;59.172;17.196;2022-10-15T04:13:41;100223.59;;;10.34;86.32
61568;BME280;47462;59.172;17.196;2022-10-15T04:16:06;100175.56;;;10.15;86.46
61568;BME280;47462;59.172;17.196;2022-10-15T04:18:32;100219.88;;;10.42;86.41
61568;BME280;47462;59.172;17.196;2022-10-15T04:21:01;100191.75;;;10.25;86.41
61568;BME280;47462;59.172;17.196;2022-10-15T04:23:26;100211.81;;;10.48;86.55
61568;BME280;47462;59.172;17.196;2022-10-15T04:25:52;100209.81;;;10.55;86.45
61568;BME280;47462;59.172;17.196;2022-10-15T04:28:17;100145.03;;;10.18;86.58
61568;BME280;47462;59.172;17.196;2022-10-15T04:30:44;100080.16;;;9.86;86.85
61568;BME280;47462;59.172;17.196;2022-10-15T04:33:09;100201.09;;;10.56;86.80
61568;BME280;47462;59.172;17.196;2022-10-15T04:35:34;100149.81;;;10.31;86.94
61568;BME280;47462;59.172;17.196;2022-10-15T04:38:00;100112.19;;;10.13;87.02
61568;BME280;47462;59.172;17.196;2022-10-15T04:40:26;100191.69;;;10.75;86.90
61568;BME280;47462;59.172;17.196;2022-10-15T04:42:52;100185.72;;;10.71;87.02
61568;BME280;47462;59.172;17.196;2022-10-15T04:45:18;100194.13;;;10.80;87.15
61568;BME280;47462;59.172;17.196;2022-10-15T04:47:43;100152.25;;;10.59;86.95
61568;BME280;47462;59.172;17.196;2022-10-15T04:50:09;100180.59;;;10.92;87.23
61568;BME280;47462;59.172;17.196;2022-10-15T04:52:34;100190.06;;;10.95;87.28
61568;BME280;47462;59.172;17.196;2022-10-15T04:55:00;100096.16;;;10.47;87.50
61568;BME280;47462;59.172;17.196;2022-10-15T04:57:27;100171.47;;;11.02;87.55
61568;BME280;47462;59.172;17.196;2022-10-15T04:59:52;100171.31;;;11.07;87.53
61568;BME280;47462;59.172;17.196;2022-10-15T05:02:18;100160.09;;;11.05;87.53
61568;BME280;47462;59.172;17.196;2022-10-15T05:04:43;100177.16;;;11.14;87.51
61568;BME280;47462;59.172;17.196;2022-10-15T05:07:09;100063.59;;;10.58;87.66
61568;BME280;47462;59.172;17.196;2022-10-15T05:09:34;100173.56;;;11.16;87.87
61568;BME280;47462;59.172;17.196;2022-10-15T05:11:59;100159.97;;;11.30;87.84
61568;BME280;47462;59.172;17.196;2022-10-15T05:14:25;100156.47;;;11.30;87.59
61568;BME280;47462;59.172;17.196;2022-10-15T05:16:50;100158.19;;;11.31;87.83
61568;BME280;47462;59.172;17.196;2022-10-15T05:19:15;100151.81;;;11.38;87.78
61568;BME280;47462;59.172;17.196;2022-10-15T05:21:42;100161.34;;;11.39;88.13
61568;BME280;47462;59.172;17.196;2022-10-15T05:24:08;100147.75;;;11.31;88.20
61568;BME280;47462;59.172;17.196;2022-10-15T05:26:34;100098.06;;;11.10;88.33
61568;BME280;47462;59.172;17.196;2022-10-15T05:29:00;100133.09;;;11.27;88.30
61568;BME280;47462;59.172;17.196;2022-10-15T05:31:29;100145.41;;;11.45;88.72
61568;BME280;47462;59.172;17.196;2022-10-15T05:33:54;100148.69;;;11.50;88.58
61568;BME280;47462;59.172;17.196;2022-10-15T05:36:25;100157.25;;;11.54;88.55
61568;BME280;47462;59.172;17.196;2022-10-15T05:38:56;100062.00;;;10.98;88.60
61568;BME280;47462;59.172;17.196;2022-10-15T05:41:22;100164.00;;;11.59;88.96
61568;BME280;47462;59.172;17.196;2022-10-15T05:43:49;100148.19;;;11.63;88.68
61568;BME280;47462;59.172;17.196;2022-10-15T05:46:16;100132.75;;;11.56;88.68
61568;BME280;47462;59.172;17.196;2022-10-15T05:48:41;100108.00;;;11.45;88.77
61568;BME280;47462;59.172;17.196;2022-10-15T05:51:10;100142.69;;;11.69;88.69
61568;BME280;47462;59.172;17.196;2022-10-15T05:53:36;100126.09;;;11.70;88.64
61568;BME280;47462;59.172;17.196;2022-10-15T05:56:02;100127.00;;;11.69;88.56
61568;BME280;47462;59.172;17.196;2022-10-15T05:58:28;100067.66;;;11.30;88.65
61568;BME280;47462;59.172;17.196;2022-10-15T06:00:55;100176.34;;;11.76;88.52
61568;BME280;47462;59.172;17.196;2022-10-15T06:03:21;99849.13;;;10.07;88.37
61568;BME280;47462;59.172;17.196;2022-10-15T06:05:47;100134.59;;;11.75;88.70
61568;BME280;47462;59.172;17.196;2022-10-15T06:08:13;100069.19;;;11.35;88.55
61568;BME280;47462;59.172;17.196;2022-10-15T06:10:38;100096.19;;;11.56;88.67
61568;BME280;47462;59.172;17.196;2022-10-15T06:13:04;100029.69;;;11.22;88.68
61568;BME280;47462;59.172;17.196;2022-10-15T06:15:30;99924.34;;;10.60;88.38
61568;BME280;47462;59.172;17.196;2022-10-15T06:17:56;100116.81;;;11.83;88.29
61568;BME280;47462;59.172;17.196;2022-10-15T06:20:21;100088.97;;;11.62;88.59
61568;BME280;47462;59.172;17.196;2022-10-15T06:22:47;100076.81;;;11.60;88.65
61568;BME280;47462;59.172;17.196;2022-10-15T06:25:12;100136.13;;;12.01;88.55
61568;BME280;47462;59.172;17.196;2022-10-15T06:27:38;100133.28;;;12.06;88.63
61568;BME280;47462;59.172;17.196;2022-10-15T06:30:04;100128.41;;;11.98;88.33
61568;BME280;47462;59.172;17.196;2022-10-15T06:32:29;100107.72;;;11.92;88.50
61568;BME280;47462;59.172;17.196;2022-10-15T06:34:54;100142.84;;;12.07;88.63
61568;BME280;47462;59.172;17.196;2022-10-15T06:37:20;100136.69;;;12.08;88.47
61568;BME280;47462;59.172;17.196;2022-10-15T06:39:45;100150.63;;;12.08;88.62
61568;BME280;47462;59.172;17.196;2022-10-15T06:42:11;100133.16;;;12.09;88.31
61568;BME280;47462;59.172;17.196;2022-10-15T06:44:37;100122.84;;;12.06;88.50
61568;BME280;47462;59.172;17.196;2022-10-15T06:47:03;100136.13;;;12.20;88.60
61568;BME280;47462;59.172;17.196;2022-10-15T06:49:28;99859.19;;;10.59;88.53
61568;BME280;47462;59.172;17.196;2022-10-15T06:51:54;100137.63;;;12.26;88.75
61568;BME280;47462;59.172;17.196;2022-10-15T06:54:19;100012.50;;;11.58;88.55
61568;BME280;47462;59.172;17.196;2022-10-15T06:56:44;100122.16;;;12.21;88.46
61568;BME280;47462;59.172;17.196;2022-10-15T06:59:10;100089.03;;;12.01;88.56
61568;BME280;47462;59.172;17.196;2022-10-15T07:01:35;100139.28;;;12.28;88.44
61568;BME280;47462;59.172;17.196;2022-10-15T07:04:01;100134.88;;;12.29;88.50
61568;BME280;47462;59.172;17.196;2022-10-15T07:06:27;100043.88;;;11.77;88.57
61568;BME280;47462;59.172;17.196;2022-10-15T07:08:52;100134.53;;;12.37;88.41
61568;BME280;47462;59.172;17.196;2022-10-15T07:11:18;100052.88;;;11.90;87.93
61568;BME280;47462;59.172;17.196;2022-10-15T07:13:43;100108.50;;;12.34;87.79
61568;BME280;47462;59.172;17.196;2022-10-15T07:16:10;100136.75;;;12.46;87.84
61568;BME280;47462;59.172;17.196;2022-10-15T07:18:37;100139.28;;;12.47;87.62
61568;BME280;47462;59.172;17.196;2022-10-15T07:21:04;100119.97;;;12.50;87.67
61568;BME280;47462;59.172;17.196;2022-10-15T07:23:30;100138.22;;;12.52;87.49
61568;BME280;47462;59.172;17.196;2022-10-15T07:25:59;100106.59;;;12.37;87.42
61568;BME280;47462;59.172;17.196;2022-10-15T07:28:25;100142.66;;;12.49;87.57
61568;BME280;47462;59.172;17.196;2022-10-15T07:30:51;100144.44;;;12.49;87.25
61568;BME280;47462;59.172;17.196;2022-10-15T07:33:17;100103.63;;;12.26;87.34
61568;BME280;47462;59.172;17.196;2022-10-15T07:35:42;100054.34;;;11.98;87.02
61568;BME280;47462;59.172;17.196;2022-10-15T07:38:11;100126.84;;;12.53;86.99
61568;BME280;47462;59.172;17.196;2022-10-15T07:40:36;100134.91;;;12.67;86.83
61568;BME280;47462;59.172;17.196;2022-10-15T07:43:02;100132.06;;;12.72;86.46
61568;BME280;47462;59.172;17.196;2022-10-15T07:45:27;100135.38;;;12.75;86.34
61568;BME280;47462;59.172;17.196;2022-10-15T07:47:53;100094.72;;;12.49;86.04
61568;BME280;47462;59.172;17.196;2022-10-15T07:50:22;100131.44;;;12.66;86.08
61568;BME280;47462;59.172;17.196;2022-10-15T07:52:48;100089.78;;;12.43;85.84
61568;BME280;47462;59.172;17.196;2022-10-15T07:55:13;100146.06;;;12.71;85.94
61568;BME280;47462;59.172;17.196;2022-10-15T07:57:39;100135.59;;;12.71;85.48
61568;BME280;47462;59.172;17.196;2022-10-15T08:00:05;100064.94;;;12.32;85.42
61568;BME280;47462;59.172;17.196;2022-10-15T08:02:30;100088.88;;;12.44;85.26
61568;BME280;47462;59.172;17.196;2022-10-15T08:04:56;100135.16;;;12.80;84.84
61568;BME280;47462;59.172;17.196;2022-10-15T08:07:21;100090.28;;;12.51;84.85
61568;BME280;47462;59.172;17.196;2022-10-15T08:09:47;100067.63;;;12.31;84.62
61568;BME280;47462;59.172;17.196;2022-10-15T08:12:12;100126.47;;;12.79;84.59
61568;BME280;47462;59.172;17.196;2022-10-15T08:14:38;100041.25;;;12.36;84.44
61568;BME280;47462;59.172;17.196;2022-10-15T08:17:05;100142.28;;;12.95;84.42
61568;BME280;47462;59.172;17.196;2022-10-15T08:19:30;100144.00;;;12.96;84.47
61568;BME280;47462;59.172;17.196;2022-10-15T08:21:56;100154.84;;;12.89;84.30
61568;BME280;47462;59.172;17.196;2022-10-15T08:24:22;100141.38;;;12.96;84.14
61568;BME280;47462;59.172;17.196;2022-10-15T08:26:48;100073.63;;;12.52;84.09
61568;BME280;47462;59.172;17.196;2022-10-15T08:29:14;100116.19;;;12.94;84.05
61568;BME280;47462;59.172;17.196;2022-10-15T08:31:39;99893.31;;;11.54;83.95
61568;BME280;47462;59.172;17.196;2022-10-15T08:34:05;100138.53;;;13.01;84.05
61568;BME280;47462;59.172;17.196;2022-10-15T08:36:30;100140.63;;;12.94;83.81
61568;BME280;47462;59.172;17.196;2022-10-15T08:38:56;100144.41;;;13.06;83.64
61568;BME280;47462;59.172;17.196;2022-10-15T08:41:28;100135.19;;;13.16;83.49
61568;BME280;47462;59.172;17.196;2022-10-15T08:43:55;100132.63;;;13.34;83.07
61568;BME280;47462;59.172;17.196;2022-10-15T08:46:37;100104.41;;;13.39;82.75
61568;BME280;47462;59.172;17.196;2022-10-15T08:49:04;100134.47;;;13.67;81.91
61568;BME280;47462;59.172;17.196;2022-10-15T08:51:37;100126.22;;;13.74;81.61
61568;BME280;47462;59.172;17.196;2022-10-15T08:54:04;100131.22;;;13.79;81.28
61568;BME280;47462;59.172;17.196;2022-10-15T08:56:36;100134.63;;;13.81;80.99
61568;BME280;47462;59.172;17.196;2022-10-15T08:59:54;100090.38;;;13.58;81.00
61568;BME280;47462;59.172;17.196;2022-10-15T09:02:23;100135.00;;;13.73;81.08
61568;BME280;47462;59.172;17.196;2022-10-15T09:07:43;100130.69;;;13.90;80.81
61568;BME280;47462;59.172;17.196;2022-10-15T09:10:29;100115.06;;;13.71;80.96
61568;BME280;47462;59.172;17.196;2022-10-15T09:15:36;100014.75;;;13.32;80.62
61568;BME280;47462;59.172;17.196;2022-10-15T09:18:04;100090.50;;;13.72;80.55
61568;BME280;47462;59.172;17.196;2022-10-15T09:20:35;100045.13;;;13.54;80.49
61568;BME280;47462;59.172;17.196;2022-10-15T09:23:01;100108.69;;;13.93;80.51
61568;BME280;47462;59.172;17.196;2022-10-15T09:25:34;100089.91;;;13.84;80.37
61568;BME280;47462;59.172;17.196;2022-10-15T09:28:08;100132.66;;;14.02;79.87
61568;BME280;47462;59.172;17.196;2022-10-15T09:30:53;100091.53;;;13.69;80.36
61568;BME280;47462;59.172;17.196;2022-10-15T09:33:34;100116.50;;;13.94;80.55
61568;BME280;47462;59.172;17.196;2022-10-15T09:39:08;100117.88;;;14.01;79.63
61568;BME280;47462;59.172;17.196;2022-10-15T09:44:30;100121.84;;;14.08;79.74
61568;BME280;47462;59.172;17.196;2022-10-15T09:46:56;100121.69;;;14.12;79.69
61568;BME280;47462;59.172;17.196;2022-10-15T09:49:26;100120.75;;;14.13;79.54
61568;BME280;47462;59.172;17.196;2022-10-15T09:52:20;100065.84;;;13.76;79.43
61568;BME280;47462;59.172;17.196;2022-10-15T09:57:32;100115.69;;;14.09;79.71
61568;BME280;47462;59.172;17.196;2022-10-15T10:00:02;100112.97;;;14.11;79.19
61568;BME280;47462;59.172;17.196;2022-10-15T10:02:28;100116.19;;;14.16;79.45
61568;BME280;47462;59.172;17.196;2022-10-15T10:04:54;100025.03;;;13.70;79.62
61568;BME280;47462;59.172;17.196;2022-10-15T10:07:36;100113.66;;;14.15;79.60
61568;BME280;47462;59.172;17.196;2022-10-15T10:10:25;100104.84;;;14.16;79.58
61568;BME280;47462;59.172;17.196;2022-10-15T10:12:53;100103.06;;;14.16;79.74
61568;BME280;47462;59.172;17.196;2022-10-15T10:15:40;100106.03;;;14.10;79.53
61568;BME280;47462;59.172;17.196;2022-10-15T10:18:17;100030.31;;;13.53;79.63
61568;BME280;47462;59.172;17.196;2022-10-15T10:21:04;100109.06;;;14.02;79.72
61568;BME280;47462;59.172;17.196;2022-10-15T10:23:37;100117.31;;;13.95;79.82
61568;BME280;47462;59.172;17.196;2022-10-15T10:26:05;100117.31;;;13.95;79.88
61568;BME280;47462;59.172;17.196;2022-10-15T10:31:12;100112.16;;;13.93;80.37
61568;BME280;47462;59.172;17.196;2022-10-15T10:36:07;100115.72;;;13.92;81.23
61568;BME280;47462;59.172;17.196;2022-10-15T10:38:54;100085.41;;;13.69;81.79
61568;BME280;47462;59.172;17.196;2022-10-15T10:41:20;100078.09;;;13.58;81.71
61568;BME280;47462;59.172;17.196;2022-10-15T10:43:53;100088.59;;;13.76;81.70
61568;BME280;47462;59.172;17.196;2022-10-15T10:46:21;99873.50;;;12.42;81.90
61568;BME280;47462;59.172;17.196;2022-10-15T10:48:50;100101.16;;;13.69;82.22
61568;BME280;47462;59.172;17.196;2022-10-15T10:51:23;100123.22;;;13.82;82.54
61568;BME280;47462;59.172;17.196;2022-10-15T10:56:40;100111.31;;;13.75;82.96
61568;BME280;47462;59.172;17.196;2022-10-15T11:01:53;99994.88;;;12.93;83.44
61568;BME280;47462;59.172;17.196;2022-10-15T11:04:24;100115.28;;;13.66;84.09
61568;BME280;47462;59.172;17.196;2022-10-15T11:07:04;100092.16;;;13.57;84.12
61568;BME280;47462;59.172;17.196;2022-10-15T11:09:47;100107.50;;;13.65;84.22
61568;BME280;47462;59.172;17.196;2022-10-15T11:12:29;100101.38;;;13.64;84.52
61568;BME280;47462;59.172;17.196;2022-10-15T11:15:13;100103.25;;;13.62;84.59
61568;BME280;47462;59.172;17.196;2022-10-15T11:31:54;100098.72;;;13.48;86.08
61568;BME280;47462;59.172;17.196;2022-10-15T11:42:27;100097.25;;;13.43;86.27
61568;BME280;47462;59.172;17.196;2022-10-15T11:47:53;100102.03;;;13.34;86.48
61568;BME280;47462;59.172;17.196;2022-10-15T11:50:40;100100.44;;;13.30;86.80
61568;BME280;47462;59.172;17.196;2022-10-15T11:55:54;100101.94;;;13.36;86.84
61568;BME280;47462;59.172;17.196;2022-10-15T11:58:29;100100.66;;;13.45;86.75
61568;BME280;47462;59.172;17.196;2022-10-15T12:01:00;100104.25;;;13.42;86.86
61568;BME280;47462;59.172;17.196;2022-10-15T12:03:34;100103.03;;;13.49;86.73
61568;BME280;47462;59.172;17.196;2022-10-15T12:06:12;100097.00;;;13.47;86.86
61568;BME280;47462;59.172;17.196;2022-10-15T12:08:39;100094.31;;;13.49;86.98
61568;BME280;47462;59.172;17.196;2022-10-15T12:16:25;100098.53;;;13.69;86.81
61568;BME280;47462;59.172;17.196;2022-10-15T12:19:16;100073.75;;;13.59;86.65
61568;BME280;47462;59.172;17.196;2022-10-15T12:22:00;100025.72;;;13.23;86.78
61568;BME280;47462;59.172;17.196;2022-10-15T12:27:21;100102.94;;;13.68;87.04
61568;BME280;47462;59.172;17.196;2022-10-15T12:29:50;100023.63;;;13.30;86.58
61568;BME280;47462;59.172;17.196;2022-10-15T12:32:34;100077.47;;;13.70;86.62
61568;BME280;47462;59.172;17.196;2022-10-15T12:35:29;100019.56;;;13.42;86.16
61568;BME280;47462;59.172;17.196;2022-10-15T12:37:50;100076.78;;;13.84;86.23
61568;BME280;47462;59.172;17.196;2022-10-15T12:42:58;100052.06;;;13.55;86.17
61568;BME280;47462;59.172;17.196;2022-10-15T12:50:29;100088.34;;;14.14;85.84
61568;BME280;47462;59.172;17.196;2022-10-15T12:53:32;100081.56;;;14.09;85.73
61568;BME280;47462;59.172;17.196;2022-10-15T12:58:36;100068.94;;;14.00;85.88
61568;BME280;47462;59.172;17.196;2022-10-15T13:11:28;100049.25;;;13.76;86.20
61568;BME280;47462;59.172;17.196;2022-10-15T13:13:59;100072.06;;;13.91;85.92
61568;BME280;47462;59.172;17.196;2022-10-15T13:16:25;100091.97;;;13.95;85.94
61568;BME280;47462;59.172;17.196;2022-10-15T13:18:53;100001.13;;;13.43;85.99
61568;BME280;47462;59.172;17.196;2022-10-15T13:21:20;100086.09;;;13.90;86.04
61568;BME280;47462;59.172;17.196;2022-10-15T13:23:48;99992.72;;;13.36;86.01
61568;BME280;47462;59.172;17.196;2022-10-15T13:28:45;100059.44;;;13.82;86.04
61568;BME280;47462;59.172;17.196;2022-10-15T13:31:18;99981.47;;;13.34;86.04
61568;BME280;47462;59.172;17.196;2022-10-15T13:33:48;100084.09;;;13.95;86.03
61568;BME280;47462;59.172;17.196;2022-10-15T13:36:19;100086.56;;;13.98;86.13
61568;BME280;47462;59.172;17.196;2022-10-15T13:38:52;99993.28;;;13.43;85.95
61568;BME280;47462;59.172;17.196;2022-10-15T13:41:23;100029.28;;;13.73;85.78
61568;BME280;47462;59.172;17.196;2022-10-15T13:43:50;99997.00;;;13.55;85.79
61568;BME280;47462;59.172;17.196;2022-10-15T13:46:17;100077.19;;;14.26;85.35
61568;BME280;47462;59.172;17.196;2022-10-15T13:48:43;99966.34;;;13.57;85.38
61568;BME280;47462;59.172;17.196;2022-10-15T13:51:09;100086.91;;;14.24;85.42
61568;BME280;47462;59.172;17.196;2022-10-15T13:53:39;100044.75;;;13.95;85.52
61568;BME280;47462;59.172;17.196;2022-10-15T13:56:28;100084.53;;;14.19;85.50
61568;BME280;47462;59.172;17.196;2022-10-15T13:58:54;100086.91;;;14.08;85.51
61568;BME280;47462;59.172;17.196;2022-10-15T14:01:23;100092.41;;;14.03;85.88
61568;BME280;47462;59.172;17.196;2022-10-15T14:03:56;100074.91;;;13.86;86.39
61568;BME280;47462;59.172;17.196;2022-10-15T14:06:32;100075.16;;;13.82;86.37
61568;BME280;47462;59.172;17.196;2022-10-15T14:08:59;100103.06;;;14.00;86.33
61568;BME280;47462;59.172;17.196;2022-10-15T14:11:27;100103.72;;;14.04;86.32
61568;BME280;47462;59.172;17.196;2022-10-15T14:13:55;100036.63;;;13.66;86.08
61568;BME280;47462;59.172;17.196;2022-10-15T14:16:28;100107.72;;;14.11;86.03
61568;BME280;47462;59.172;17.196;2022-10-15T14:21:28;100100.03;;;14.08;85.66
61568;BME280;47462;59.172;17.196;2022-10-15T14:24:10;100115.59;;;14.11;85.65
61568;BME280;47462;59.172;17.196;2022-10-15T14:26:38;100107.66;;;14.13;85.63
61568;BME280;47462;59.172;17.196;2022-10-15T14:29:04;100110.34;;;14.11;85.61
61568;BME280;47462;59.172;17.196;2022-10-15T14:31:35;100108.72;;;14.08;85.94
61568;BME280;47462;59.172;17.196;2022-10-15T14:34:01;100108.88;;;14.05;85.96
61568;BME280;47462;59.172;17.196;2022-10-15T14:36:39;100108.88;;;14.05;85.87
61568;BME280;47462;59.172;17.196;2022-10-15T14:39:33;100110.69;;;14.05;86.07
61568;BME280;47462;59.172;17.196;2022-10-15T14:42:03;100034.34;;;13.60;86.04
61568;BME280;47462;59.172;17.196;2022-10-15T14:44:40;100118.63;;;14.03;85.92
61568;BME280;47462;59.172;17.196;2022-10-15T14:47:22;100114.28;;;14.02;85.82